sensor_id;sensor_type;location;lat;lon;timestamp;P1;durP1;ratioP1;P2;durP2;ratioP2
53753;SDS011;39667;52.274;20.964;2022-11-27T18:54:34;61.00;;;41.20;;
53753;SDS011;39667;52.274;20.964;2022-11-27T18:57:03;53.10;;;38.00;;
53753;SDS011;39667;52.274;20.964;2022-11-27T18:59:32;58.10;;;39.80;;
53753;SDS011;39667;52.274;20.964;2022-11-27T19:02:01;59.30;;;42.70;;
53753;SDS011;39667;52.274;20.964;2022-11-27T19:04:29;67.20;;;42.80;;
53753;SDS011;39667;52.274;20.964;2022-11-27T19:06:56;59.60;;;41.50;;
53753;SDS011;39667;52.274;20.964;2022-11-27T19:09:23;62.10;;;42.60;;
53753;SDS011;39667;52.274;20.964;2022-11-27T19:11:51;60.60;;;42.50;;
53753;SDS011;39667;52.274;20.964;2022-11-27T19:14:18;64.20;;;42.60;;
53753;SDS011;39667;52.274;20.964;2022-11-27T19:16:45;62.50;;;40.50;;
53753;SDS011;39667;52.274;20.964;2022-11-27T19:19:13;60.40;;;43.90;;
53753;SDS011;39667;52.274;20.964;2022-11-27T19:22:05;60.80;;;42.30;;
53753;SDS011;39667;52.274;20.964;2022-11-27T19:24:32;63.50;;;42.50;;
53753;SDS011;39667;52.274;20.964;2022-11-27T19:26:59;62.30;;;42.70;;
53753;SDS011;39667;52.274;20.964;2022-11-27T19:29:26;61.50;;;44.70;;
53753;SDS011;39667;52.274;20.964;2022-11-27T19:31:54;66.90;;;45.30;;
53753;SDS011;39667;52.274;20.964;2022-11-27T19:34:23;63.70;;;43.70;;
53753;SDS011;39667;52.274;20.964;2022-11-27T19:36:51;59.30;;;40.70;;
53753;SDS011;39667;52.274;20.964;2022-11-27T19:39:18;56.50;;;41.50;;
53753;SDS011;39667;52.274;20.964;2022-11-27T19:41:47;58.80;;;41.60;;
53753;SDS011;39667;52.274;20.964;2022-11-27T19:44:14;58.10;;;42.70;;
53753;SDS011;39667;52.274;20.964;2022-11-27T19:46:42;65.30;;;42.90;;
53753;SDS011;39667;52.274;20.964;2022-11-27T19:49:26;58.80;;;41.40;;
53753;SDS011;39667;52.274;20.964;2022-11-27T19:51:53;64.20;;;45.40;;
53753;SDS011;39667;52.274;20.964;2022-11-27T19:54:20;59.00;;;43.90;;
53753;SDS011;39667;52.274;20.964;2022-11-27T19:56:49;59.60;;;42.10;;
53753;SDS011;39667;52.274;20.964;2022-11-27T19:59:17;57.30;;;40.70;;
53753;SDS011;39667;52.274;20.964;2022-11-27T20:01:54;59.70;;;40.50;;
53753;SDS011;39667;52.274;20.964;2022-11-27T20:04:24;58.10;;;41.60;;
53753;SDS011;39667;52.274;20.964;2022-11-27T20:06:51;58.70;;;41.60;;
53753;SDS011;39667;52.274;20.964;2022-11-27T20:09:18;63.20;;;40.50;;
53753;SDS011;39667;52.274;20.964;2022-11-27T20:11:46;57.70;;;41.90;;
53753;SDS011;39667;52.274;20.964;2022-11-27T20:14:16;64.50;;;43.70;;
53753;SDS011;39667;52.274;20.964;2022-11-27T20:16:43;54.80;;;39.30;;
53753;SDS011;39667;52.274;20.964;2022-11-27T20:19:10;56.20;;;40.70;;
53753;SDS011;39667;52.274;20.964;2022-11-27T20:21:37;58.70;;;41.80;;
53753;SDS011;39667;52.274;20.964;2022-11-27T20:24:05;59.50;;;40.00;;
53753;SDS011;39667;52.274;20.964;2022-11-27T20:26:32;51.90;;;39.00;;
53753;SDS011;39667;52.274;20.964;2022-11-27T20:29:08;56.70;;;41.00;;
53753;SDS011;39667;52.274;20.964;2022-11-27T20:31:38;57.10;;;40.60;;
53753;SDS011;39667;52.274;20.964;2022-11-27T20:34:09;55.40;;;40.00;;
53753;SDS011;39667;52.274;20.964;2022-11-27T20:36:40;66.10;;;44.30;;
53753;SDS011;39667;52.274;20.964;2022-11-27T20:39:08;54.20;;;40.40;;
53753;SDS011;39667;52.274;20.964;2022-11-27T20:41:40;56.20;;;40.60;;
53753;SDS011;39667;52.274;20.964;2022-11-27T20:44:07;54.80;;;39.80;;
53753;SDS011;39667;52.274;20.964;2022-11-27T20:46:35;55.80;;;39.00;;
53753;SDS011;39667;52.274;20.964;2022-11-27T20:49:02;57.50;;;42.10;;
53753;SDS011;39667;52.274;20.964;2022-11-27T20:51:30;59.30;;;43.50;;
53753;SDS011;39667;52.274;20.964;2022-11-27T20:54:06;61.60;;;41.70;;
53753;SDS011;39667;52.274;20.964;2022-11-27T20:56:33;59.30;;;42.00;;
53753;SDS011;39667;52.274;20.964;2022-11-27T20:59:01;60.30;;;43.10;;
53753;SDS011;39667;52.274;20.964;2022-11-27T21:01:31;58.30;;;40.00;;
53753;SDS011;39667;52.274;20.964;2022-11-27T21:04:00;61.70;;;42.80;;
53753;SDS011;39667;52.274;20.964;2022-11-27T21:06:31;62.10;;;42.80;;
53753;SDS011;39667;52.274;20.964;2022-11-27T21:08:59;55.70;;;40.90;;
53753;SDS011;39667;52.274;20.964;2022-11-27T21:11:28;59.30;;;42.60;;
53753;SDS011;39667;52.274;20.964;2022-11-27T21:13:58;59.20;;;44.20;;
53753;SDS011;39667;52.274;20.964;2022-11-27T21:16:28;56.10;;;41.70;;
53753;SDS011;39667;52.274;20.964;2022-11-27T21:18:59;58.80;;;42.00;;
53753;SDS011;39667;52.274;20.964;2022-11-27T21:21:28;59.50;;;42.10;;
53753;SDS011;39667;52.274;20.964;2022-11-27T21:23:56;60.20;;;41.80;;
53753;SDS011;39667;52.274;20.964;2022-11-27T21:26:24;56.60;;;41.00;;
53753;SDS011;39667;52.274;20.964;2022-11-27T21:28:51;65.30;;;42.20;;
53753;SDS011;39667;52.274;20.964;2022-11-27T21:31:19;66.20;;;42.80;;
53753;SDS011;39667;52.274;20.964;2022-11-27T21:33:55;58.60;;;43.90;;
53753;SDS011;39667;52.274;20.964;2022-11-27T21:36:25;63.20;;;42.60;;
53753;SDS011;39667;52.274;20.964;2022-11-27T21:38:55;56.40;;;43.10;;
53753;SDS011;39667;52.274;20.964;2022-11-27T21:41:23;63.20;;;42.00;;
53753;SDS011;39667;52.274;20.964;2022-11-27T21:43:53;59.50;;;41.30;;
53753;SDS011;39667;52.274;20.964;2022-11-27T21:46:22;54.60;;;41.60;;
53753;SDS011;39667;52.274;20.964;2022-11-27T21:48:51;55.60;;;40.50;;
53753;SDS011;39667;52.274;20.964;2022-11-27T21:51:20;55.00;;;40.70;;
53753;SDS011;39667;52.274;20.964;2022-11-27T21:53:49;61.70;;;42.40;;
53753;SDS011;39667;52.274;20.964;2022-11-27T21:56:18;57.00;;;41.90;;
53753;SDS011;39667;52.274;20.964;2022-11-27T21:58:47;51.40;;;39.20;;
53753;SDS011;39667;52.274;20.964;2022-11-27T22:01:15;58.50;;;40.40;;
53753;SDS011;39667;52.274;20.964;2022-11-27T22:03:45;57.90;;;41.30;;
53753;SDS011;39667;52.274;20.964;2022-11-27T22:06:17;57.70;;;39.80;;
53753;SDS011;39667;52.274;20.964;2022-11-27T22:08:45;54.80;;;41.20;;
53753;SDS011;39667;52.274;20.964;2022-11-27T22:11:18;57.10;;;41.10;;
53753;SDS011;39667;52.274;20.964;2022-11-27T22:13:48;56.80;;;42.00;;
53753;SDS011;39667;52.274;20.964;2022-11-27T22:16:19;73.40;;;44.00;;
53753;SDS011;39667;52.274;20.964;2022-11-27T22:18:48;63.50;;;47.60;;
53753;SDS011;39667;52.274;20.964;2022-11-27T22:21:16;72.40;;;48.40;;
53753;SDS011;39667;52.274;20.964;2022-11-27T22:23:43;64.20;;;48.00;;
53753;SDS011;39667;52.274;20.964;2022-11-27T22:26:12;67.00;;;47.40;;
53753;SDS011;39667;52.274;20.964;2022-11-27T22:28:40;62.10;;;45.60;;
53753;SDS011;39667;52.274;20.964;2022-11-27T22:33:40;63.40;;;45.60;;
53753;SDS011;39667;52.274;20.964;2022-11-27T22:36:12;61.30;;;47.70;;
53753;SDS011;39667;52.274;20.964;2022-11-27T22:38:53;69.50;;;48.30;;
53753;SDS011;39667;52.274;20.964;2022-11-27T22:41:21;69.90;;;50.30;;
53753;SDS011;39667;52.274;20.964;2022-11-27T22:43:51;71.80;;;49.70;;
53753;SDS011;39667;52.274;20.964;2022-11-27T22:46:29;69.10;;;49.60;;
53753;SDS011;39667;52.274;20.964;2022-11-27T22:49:02;69.60;;;47.70;;
53753;SDS011;39667;52.274;20.964;2022-11-27T22:51:32;62.40;;;46.80;;
53753;SDS011;39667;52.274;20.964;2022-11-27T22:54:05;68.40;;;47.90;;
53753;SDS011;39667;52.274;20.964;2022-11-27T22:56:33;67.00;;;49.10;;
53753;SDS011;39667;52.274;20.964;2022-11-27T22:59:00;67.40;;;48.10;;
53753;SDS011;39667;52.274;20.964;2022-11-27T23:01:47;64.10;;;47.20;;
53753;SDS011;39667;52.274;20.964;2022-11-27T23:04:15;60.70;;;44.60;;
53753;SDS011;39667;52.274;20.964;2022-11-27T23:06:42;57.20;;;43.40;;
53753;SDS011;39667;52.274;20.964;2022-11-27T23:09:14;52.50;;;40.00;;
53753;SDS011;39667;52.274;20.964;2022-11-27T23:11:43;56.60;;;41.50;;
53753;SDS011;39667;52.274;20.964;2022-11-27T23:14:10;58.70;;;42.20;;
53753;SDS011;39667;52.274;20.964;2022-11-27T23:16:37;61.40;;;42.60;;
53753;SDS011;39667;52.274;20.964;2022-11-27T23:19:04;60.20;;;44.30;;
53753;SDS011;39667;52.274;20.964;2022-11-27T23:21:31;56.70;;;43.30;;
53753;SDS011;39667;52.274;20.964;2022-11-27T23:24:00;66.80;;;43.30;;
53753;SDS011;39667;52.274;20.964;2022-11-27T23:26:27;62.40;;;45.00;;
53753;SDS011;39667;52.274;20.964;2022-11-27T23:28:54;59.60;;;44.00;;
53753;SDS011;39667;52.274;20.964;2022-11-27T23:31:22;59.20;;;42.90;;
53753;SDS011;39667;52.274;20.964;2022-11-27T23:33:57;58.20;;;44.50;;
53753;SDS011;39667;52.274;20.964;2022-11-27T23:36:27;61.60;;;42.50;;
53753;SDS011;39667;52.274;20.964;2022-11-27T23:38:57;60.60;;;44.80;;
53753;SDS011;39667;52.274;20.964;2022-11-27T23:41:25;59.90;;;42.90;;
53753;SDS011;39667;52.274;20.964;2022-11-27T23:43:53;60.10;;;43.60;;
53753;SDS011;39667;52.274;20.964;2022-11-27T23:46:22;60.80;;;43.90;;
53753;SDS011;39667;52.274;20.964;2022-11-27T23:48:55;66.50;;;45.00;;
53753;SDS011;39667;52.274;20.964;2022-11-27T23:51:24;60.10;;;44.30;;
53753;SDS011;39667;52.274;20.964;2022-11-27T23:53:52;61.10;;;44.10;;
53753;SDS011;39667;52.274;20.964;2022-11-27T23:56:21;67.10;;;44.40;;
53753;SDS011;39667;52.274;20.964;2022-11-27T23:58:52;57.50;;;43.00;;
